sensor_id;sensor_type;location;lat;lon;timestamp;P1;durP1;ratioP1;P2;durP2;ratioP2
76548;SDS011;65391;52.068;4.542;2023-07-20T00:00:40;4.4;;;2.7;;
76548;SDS011;65391;52.068;4.542;2023-07-20T00:03:10;4.4;;;2.7;;
76548;SDS011;65391;52.068;4.542;2023-07-20T00:05:30;4.8;;;2.5;;
76548;SDS011;65391;52.068;4.542;2023-07-20T00:07:55;4.8;;;2.5;;
76548;SDS011;65391;52.068;4.542;2023-07-20T00:10:20;4.8;;;2.5;;
76548;SDS011;65391;52.068;4.542;2023-07-20T00:12:45;4.8;;;2.5;;
76548;SDS011;65391;52.068;4.542;2023-07-20T00:15:10;6.4;;;2.5;;
76548;SDS011;65391;52.068;4.542;2023-07-20T00:17:35;6.4;;;2.5;;
76548;SDS011;65391;52.068;4.542;2023-07-20T00:20:00;6.4;;;2.5;;
76548;SDS011;65391;52.068;4.542;2023-07-20T00:22:26;6.4;;;2.5;;
76548;SDS011;65391;52.068;4.542;2023-07-20T00:24:50;6.4;;;2.5;;
76548;SDS011;65391;52.068;4.542;2023-07-20T00:27:15;2.8;;;1.6;;
76548;SDS011;65391;52.068;4.542;2023-07-20T00:29:41;2.8;;;1.6;;
76548;SDS011;65391;52.068;4.542;2023-07-20T00:32:06;2.8;;;1.6;;
76548;SDS011;65391;52.068;4.542;2023-07-20T00:34:31;2.8;;;1.6;;
76548;SDS011;65391;52.068;4.542;2023-07-20T00:36:55;2.5;;;1.1;;
76548;SDS011;65391;52.068;4.542;2023-07-20T00:39:20;2.5;;;1.1;;
76548;SDS011;65391;52.068;4.542;2023-07-20T00:41:45;2.5;;;1.1;;
76548;SDS011;65391;52.068;4.542;2023-07-20T00:44:10;2.5;;;1.1;;
76548;SDS011;65391;52.068;4.542;2023-07-20T00:46:36;2;;;0.9;;
76548;SDS011;65391;52.068;4.542;2023-07-20T00:49:00;2;;;0.9;;
76548;SDS011;65391;52.068;4.542;2023-07-20T00:51:26;2;;;0.9;;
76548;SDS011;65391;52.068;4.542;2023-07-20T00:53:51;2;;;0.9;;
76548;SDS011;65391;52.068;4.542;2023-07-20T00:56:16;2.4;;;0.7;;
76548;SDS011;65391;52.068;4.542;2023-07-20T00:58:41;2.4;;;0.7;;
76548;SDS011;65391;52.068;4.542;2023-07-20T01:01:06;2.4;;;0.7;;
76548;SDS011;65391;52.068;4.542;2023-07-20T01:03:31;2.4;;;0.7;;
76548;SDS011;65391;52.068;4.542;2023-07-20T01:06:14;1.5;;;1;;
76548;SDS011;65391;52.068;4.542;2023-07-20T01:08:24;1.5;;;1;;
76548;SDS011;65391;52.068;4.542;2023-07-20T01:10:49;1.5;;;1;;
76548;SDS011;65391;52.068;4.542;2023-07-20T01:13:11;1.5;;;1;;
76548;SDS011;65391;52.068;4.542;2023-07-20T01:15:36;5.6;;;1.1;;
76548;SDS011;65391;52.068;4.542;2023-07-20T01:18:01;5.6;;;1.1;;
76548;SDS011;65391;52.068;4.542;2023-07-20T01:20:26;5.6;;;1.1;;
76548;SDS011;65391;52.068;4.542;2023-07-20T01:23:01;5.6;;;1.1;;
76548;SDS011;65391;52.068;4.542;2023-07-20T01:25:21;1.5;;;1;;
76548;SDS011;65391;52.068;4.542;2023-07-20T01:28:15;1.5;;;1;;
76548;SDS011;65391;52.068;4.542;2023-07-20T01:30:14;1.5;;;1;;
76548;SDS011;65391;52.068;4.542;2023-07-20T01:32:31;1.5;;;1;;
76548;SDS011;65391;52.068;4.542;2023-07-20T01:34:56;1.5;;;1;;
76548;SDS011;65391;52.068;4.542;2023-07-20T01:37:21;1.4;;;0.9;;
76548;SDS011;65391;52.068;4.542;2023-07-20T01:39:46;1.4;;;0.9;;
76548;SDS011;65391;52.068;4.542;2023-07-20T01:42:11;1.4;;;0.9;;
76548;SDS011;65391;52.068;4.542;2023-07-20T01:44:37;1.4;;;0.9;;
76548;SDS011;65391;52.068;4.542;2023-07-20T01:47:01;2.7;;;1.2;;
76548;SDS011;65391;52.068;4.542;2023-07-20T01:49:26;2.7;;;1.2;;
76548;SDS011;65391;52.068;4.542;2023-07-20T01:51:51;2.7;;;1.2;;
76548;SDS011;65391;52.068;4.542;2023-07-20T01:54:16;2.7;;;1.2;;
76548;SDS011;65391;52.068;4.542;2023-07-20T01:56:41;2.7;;;1.1;;
76548;SDS011;65391;52.068;4.542;2023-07-20T01:59:06;2.7;;;1.1;;
76548;SDS011;65391;52.068;4.542;2023-07-20T02:01:31;2.7;;;1.1;;
76548;SDS011;65391;52.068;4.542;2023-07-20T02:03:56;2.7;;;1.1;;
76548;SDS011;65391;52.068;4.542;2023-07-20T02:06:21;1.6;;;1.1;;
76548;SDS011;65391;52.068;4.542;2023-07-20T02:08:46;1.6;;;1.1;;
76548;SDS011;65391;52.068;4.542;2023-07-20T02:11:11;1.6;;;1.1;;
76548;SDS011;65391;52.068;4.542;2023-07-20T02:13:36;1.6;;;1.1;;
76548;SDS011;65391;52.068;4.542;2023-07-20T02:16:01;2.7;;;1;;
76548;SDS011;65391;52.068;4.542;2023-07-20T02:18:26;2.7;;;1;;
76548;SDS011;65391;52.068;4.542;2023-07-20T02:20:52;2.7;;;1;;
76548;SDS011;65391;52.068;4.542;2023-07-20T02:23:16;2.7;;;1;;
76548;SDS011;65391;52.068;4.542;2023-07-20T02:25:41;1;;;0.7;;
76548;SDS011;65391;52.068;4.542;2023-07-20T02:28:07;1;;;0.7;;
76548;SDS011;65391;52.068;4.542;2023-07-20T02:30:31;1;;;0.7;;
76548;SDS011;65391;52.068;4.542;2023-07-20T02:32:56;1;;;0.7;;
76548;SDS011;65391;52.068;4.542;2023-07-20T02:35:21;1.9;;;0.8;;
76548;SDS011;65391;52.068;4.542;2023-07-20T02:37:46;1.9;;;0.8;;
76548;SDS011;65391;52.068;4.542;2023-07-20T02:40:11;1.9;;;0.8;;
76548;SDS011;65391;52.068;4.542;2023-07-20T02:42:36;1.9;;;0.8;;
76548;SDS011;65391;52.068;4.542;2023-07-20T02:45:01;1.9;;;0.8;;
76548;SDS011;65391;52.068;4.542;2023-07-20T02:47:26;1.5;;;0.9;;
76548;SDS011;65391;52.068;4.542;2023-07-20T02:49:51;1.5;;;0.9;;
76548;SDS011;65391;52.068;4.542;2023-07-20T02:52:16;1.5;;;0.9;;
76548;SDS011;65391;52.068;4.542;2023-07-20T02:54:41;1.5;;;0.9;;
76548;SDS011;65391;52.068;4.542;2023-07-20T02:57:06;6.3;;;1.1;;
76548;SDS011;65391;52.068;4.542;2023-07-20T02:59:31;6.3;;;1.1;;
76548;SDS011;65391;52.068;4.542;2023-07-20T03:01:56;6.3;;;1.1;;
76548;SDS011;65391;52.068;4.542;2023-07-20T03:04:21;6.3;;;1.1;;
76548;SDS011;65391;52.068;4.542;2023-07-20T03:06:46;1.4;;;0.9;;
76548;SDS011;65391;52.068;4.542;2023-07-20T03:09:11;1.4;;;0.9;;
76548;SDS011;65391;52.068;4.542;2023-07-20T03:11:36;1.4;;;0.9;;
76548;SDS011;65391;52.068;4.542;2023-07-20T03:14:01;1.4;;;0.9;;
76548;SDS011;65391;52.068;4.542;2023-07-20T03:16:26;2.1;;;1.2;;
76548;SDS011;65391;52.068;4.542;2023-07-20T03:18:51;2.1;;;1.2;;
76548;SDS011;65391;52.068;4.542;2023-07-20T03:21:16;2.1;;;1.2;;
76548;SDS011;65391;52.068;4.542;2023-07-20T03:23:41;2.1;;;1.2;;
76548;SDS011;65391;52.068;4.542;2023-07-20T03:26:06;1.5;;;1;;
76548;SDS011;65391;52.068;4.542;2023-07-20T03:28:31;1.5;;;1;;
76548;SDS011;65391;52.068;4.542;2023-07-20T03:30:56;1.5;;;1;;
76548;SDS011;65391;52.068;4.542;2023-07-20T03:33:21;1.5;;;1;;
76548;SDS011;65391;52.068;4.542;2023-07-20T03:35:46;3.3;;;0.9;;
76548;SDS011;65391;52.068;4.542;2023-07-20T03:38:11;3.3;;;0.9;;
76548;SDS011;65391;52.068;4.542;2023-07-20T03:40:36;3.3;;;0.9;;
76548;SDS011;65391;52.068;4.542;2023-07-20T03:43:01;3.3;;;0.9;;
76548;SDS011;65391;52.068;4.542;2023-07-20T03:45:26;1.7;;;1.1;;
76548;SDS011;65391;52.068;4.542;2023-07-20T03:47:51;1.7;;;1.1;;
76548;SDS011;65391;52.068;4.542;2023-07-20T03:50:16;1.7;;;1.1;;
76548;SDS011;65391;52.068;4.542;2023-07-20T03:52:41;1.7;;;1.1;;
76548;SDS011;65391;52.068;4.542;2023-07-20T03:55:07;1.7;;;1.1;;
76548;SDS011;65391;52.068;4.542;2023-07-20T03:57:31;1.6;;;0.9;;
76548;SDS011;65391;52.068;4.542;2023-07-20T03:59:56;1.6;;;0.9;;
76548;SDS011;65391;52.068;4.542;2023-07-20T04:02:21;1.6;;;0.9;;
76548;SDS011;65391;52.068;4.542;2023-07-20T04:04:46;1.6;;;0.9;;
76548;SDS011;65391;52.068;4.542;2023-07-20T04:07:11;1.9;;;1.2;;
76548;SDS011;65391;52.068;4.542;2023-07-20T04:09:36;1.9;;;1.2;;
76548;SDS011;65391;52.068;4.542;2023-07-20T04:12:01;1.9;;;1.2;;
76548;SDS011;65391;52.068;4.542;2023-07-20T04:14:26;1.9;;;1.2;;
76548;SDS011;65391;52.068;4.542;2023-07-20T04:16:51;2.2;;;1.2;;
76548;SDS011;65391;52.068;4.542;2023-07-20T04:19:16;2.2;;;1.2;;
76548;SDS011;65391;52.068;4.542;2023-07-20T04:21:41;2.2;;;1.2;;
76548;SDS011;65391;52.068;4.542;2023-07-20T04:24:06;2.2;;;1.2;;
76548;SDS011;65391;52.068;4.542;2023-07-20T04:26:31;2.8;;;1.2;;
76548;SDS011;65391;52.068;4.542;2023-07-20T04:28:56;2.8;;;1.2;;
76548;SDS011;65391;52.068;4.542;2023-07-20T04:31:21;2.8;;;1.2;;
76548;SDS011;65391;52.068;4.542;2023-07-20T04:33:46;2.8;;;1.2;;
76548;SDS011;65391;52.068;4.542;2023-07-20T04:36:11;2.9;;;1.2;;
76548;SDS011;65391;52.068;4.542;2023-07-20T04:38:36;2.9;;;1.2;;
76548;SDS011;65391;52.068;4.542;2023-07-20T04:41:01;2.9;;;1.2;;
76548;SDS011;65391;52.068;4.542;2023-07-20T04:43:29;2.9;;;1.2;;
76548;SDS011;65391;52.068;4.542;2023-07-20T04:45:51;2.6;;;1.1;;
76548;SDS011;65391;52.068;4.542;2023-07-20T04:48:16;2.6;;;1.1;;
76548;SDS011;65391;52.068;4.542;2023-07-20T04:50:42;2.6;;;1.1;;
76548;SDS011;65391;52.068;4.542;2023-07-20T04:53:06;2.6;;;1.1;;
76548;SDS011;65391;52.068;4.542;2023-07-20T04:55:31;1.7;;;0.9;;
76548;SDS011;65391;52.068;4.542;2023-07-20T04:57:56;1.7;;;0.9;;
76548;SDS011;65391;52.068;4.542;2023-07-20T05:00:21;1.7;;;0.9;;
76548;SDS011;65391;52.068;4.542;2023-07-20T05:02:46;1.7;;;0.9;;
76548;SDS011;65391;52.068;4.542;2023-07-20T05:05:12;1.7;;;0.9;;
76548;SDS011;65391;52.068;4.542;2023-07-20T05:07:36;3;;;1;;
76548;SDS011;65391;52.068;4.542;2023-07-20T05:10:01;3;;;1;;
76548;SDS011;65391;52.068;4.542;2023-07-20T05:12:26;3;;;1;;
76548;SDS011;65391;52.068;4.542;2023-07-20T05:14:51;3;;;1;;
76548;SDS011;65391;52.068;4.542;2023-07-20T05:17:16;1.9;;;1;;
76548;SDS011;65391;52.068;4.542;2023-07-20T05:19:41;1.9;;;1;;
76548;SDS011;65391;52.068;4.542;2023-07-20T05:22:06;1.9;;;1;;
76548;SDS011;65391;52.068;4.542;2023-07-20T05:24:31;1.9;;;1;;
76548;SDS011;65391;52.068;4.542;2023-07-20T05:26:57;3.8;;;2;;
76548;SDS011;65391;52.068;4.542;2023-07-20T05:29:21;3.8;;;2;;
76548;SDS011;65391;52.068;4.542;2023-07-20T05:31:46;3.8;;;2;;
76548;SDS011;65391;52.068;4.542;2023-07-20T05:34:11;3.8;;;2;;
76548;SDS011;65391;52.068;4.542;2023-07-20T05:36:36;1.2;;;0.6;;
76548;SDS011;65391;52.068;4.542;2023-07-20T05:39:01;1.2;;;0.6;;
76548;SDS011;65391;52.068;4.542;2023-07-20T05:41:26;1.2;;;0.6;;
76548;SDS011;65391;52.068;4.542;2023-07-20T05:43:51;1.2;;;0.6;;
76548;SDS011;65391;52.068;4.542;2023-07-20T05:46:16;4.7;;;0.8;;
76548;SDS011;65391;52.068;4.542;2023-07-20T05:48:41;4.7;;;0.8;;
76548;SDS011;65391;52.068;4.542;2023-07-20T05:51:06;4.7;;;0.8;;
76548;SDS011;65391;52.068;4.542;2023-07-20T05:53:31;4.7;;;0.8;;
76548;SDS011;65391;52.068;4.542;2023-07-20T05:55:56;1.2;;;0.3;;
76548;SDS011;65391;52.068;4.542;2023-07-20T05:58:21;1.2;;;0.3;;
76548;SDS011;65391;52.068;4.542;2023-07-20T06:00:47;1.2;;;0.3;;
76548;SDS011;65391;52.068;4.542;2023-07-20T06:03:11;1.2;;;0.3;;
76548;SDS011;65391;52.068;4.542;2023-07-20T06:05:36;2.4;;;0.4;;
76548;SDS011;65391;52.068;4.542;2023-07-20T06:08:01;2.4;;;0.4;;
76548;SDS011;65391;52.068;4.542;2023-07-20T06:10:26;2.4;;;0.4;;
76548;SDS011;65391;52.068;4.542;2023-07-20T06:12:51;2.4;;;0.4;;
76548;SDS011;65391;52.068;4.542;2023-07-20T06:15:24;2.4;;;0.4;;
76548;SDS011;65391;52.068;4.542;2023-07-20T06:17:41;0.9;;;0.2;;
76548;SDS011;65391;52.068;4.542;2023-07-20T06:20:07;0.9;;;0.2;;
76548;SDS011;65391;52.068;4.542;2023-07-20T06:22:31;0.9;;;0.2;;
76548;SDS011;65391;52.068;4.542;2023-07-20T06:24:56;0.9;;;0.2;;
76548;SDS011;65391;52.068;4.542;2023-07-20T06:27:21;1.4;;;0.3;;
76548;SDS011;65391;52.068;4.542;2023-07-20T06:29:46;1.4;;;0.3;;
76548;SDS011;65391;52.068;4.542;2023-07-20T06:32:11;1.4;;;0.3;;
76548;SDS011;65391;52.068;4.542;2023-07-20T06:34:36;1.4;;;0.3;;
76548;SDS011;65391;52.068;4.542;2023-07-20T06:37:01;5.1;;;0.6;;
76548;SDS011;65391;52.068;4.542;2023-07-20T06:39:26;5.1;;;0.6;;
76548;SDS011;65391;52.068;4.542;2023-07-20T06:41:51;5.1;;;0.6;;
76548;SDS011;65391;52.068;4.542;2023-07-20T06:44:16;5.1;;;0.6;;
76548;SDS011;65391;52.068;4.542;2023-07-20T06:46:41;1.7;;;0.4;;
76548;SDS011;65391;52.068;4.542;2023-07-20T06:49:06;1.7;;;0.4;;
76548;SDS011;65391;52.068;4.542;2023-07-20T06:51:31;1.7;;;0.4;;
76548;SDS011;65391;52.068;4.542;2023-07-20T06:53:56;1.7;;;0.4;;
76548;SDS011;65391;52.068;4.542;2023-07-20T06:56:21;1.2;;;0.9;;
76548;SDS011;65391;52.068;4.542;2023-07-20T06:58:46;1.2;;;0.9;;
76548;SDS011;65391;52.068;4.542;2023-07-20T07:01:11;1.2;;;0.9;;
76548;SDS011;65391;52.068;4.542;2023-07-20T07:03:36;1.2;;;0.9;;
76548;SDS011;65391;52.068;4.542;2023-07-20T07:06:02;2.2;;;0.5;;
76548;SDS011;65391;52.068;4.542;2023-07-20T07:08:26;2.2;;;0.5;;
76548;SDS011;65391;52.068;4.542;2023-07-20T07:10:52;2.2;;;0.5;;
76548;SDS011;65391;52.068;4.542;2023-07-20T07:13:16;2.2;;;0.5;;
76548;SDS011;65391;52.068;4.542;2023-07-20T07:15:42;1.2;;;0.4;;
76548;SDS011;65391;52.068;4.542;2023-07-20T07:18:06;1.2;;;0.4;;
76548;SDS011;65391;52.068;4.542;2023-07-20T07:20:31;1.2;;;0.4;;
76548;SDS011;65391;52.068;4.542;2023-07-20T07:22:56;1.2;;;0.4;;
76548;SDS011;65391;52.068;4.542;2023-07-20T07:25:21;1.2;;;0.4;;
76548;SDS011;65391;52.068;4.542;2023-07-20T07:27:46;1.9;;;0.7;;
76548;SDS011;65391;52.068;4.542;2023-07-20T07:30:12;1.9;;;0.7;;
76548;SDS011;65391;52.068;4.542;2023-07-20T07:32:36;1.9;;;0.7;;
76548;SDS011;65391;52.068;4.542;2023-07-20T07:35:01;1.9;;;0.7;;
76548;SDS011;65391;52.068;4.542;2023-07-20T07:37:26;2.5;;;0.6;;
76548;SDS011;65391;52.068;4.542;2023-07-20T07:39:51;2.5;;;0.6;;
76548;SDS011;65391;52.068;4.542;2023-07-20T07:42:16;2.5;;;0.6;;
76548;SDS011;65391;52.068;4.542;2023-07-20T07:44:41;2.5;;;0.6;;
76548;SDS011;65391;52.068;4.542;2023-07-20T07:47:07;1;;;0.4;;
76548;SDS011;65391;52.068;4.542;2023-07-20T07:49:31;1;;;0.4;;
76548;SDS011;65391;52.068;4.542;2023-07-20T07:51:56;1;;;0.4;;
76548;SDS011;65391;52.068;4.542;2023-07-20T07:54:22;1;;;0.4;;
76548;SDS011;65391;52.068;4.542;2023-07-20T07:56:47;1.9;;;0.5;;
76548;SDS011;65391;52.068;4.542;2023-07-20T07:59:11;1.9;;;0.5;;
76548;SDS011;65391;52.068;4.542;2023-07-20T08:01:37;1.9;;;0.5;;
76548;SDS011;65391;52.068;4.542;2023-07-20T08:04:02;1.9;;;0.5;;
76548;SDS011;65391;52.068;4.542;2023-07-20T08:06:27;1.6;;;0.4;;
76548;SDS011;65391;52.068;4.542;2023-07-20T08:08:51;1.6;;;0.4;;
76548;SDS011;65391;52.068;4.542;2023-07-20T08:11:16;1.6;;;0.4;;
76548;SDS011;65391;52.068;4.542;2023-07-20T08:13:41;1.6;;;0.4;;
76548;SDS011;65391;52.068;4.542;2023-07-20T08:16:06;2.8;;;0.4;;
76548;SDS011;65391;52.068;4.542;2023-07-20T08:18:32;2.8;;;0.4;;
76548;SDS011;65391;52.068;4.542;2023-07-20T08:20:56;2.8;;;0.4;;
76548;SDS011;65391;52.068;4.542;2023-07-20T08:23:22;2.8;;;0.4;;
76548;SDS011;65391;52.068;4.542;2023-07-20T08:25:47;1.7;;;0.5;;
76548;SDS011;65391;52.068;4.542;2023-07-20T08:28:13;1.7;;;0.5;;
76548;SDS011;65391;52.068;4.542;2023-07-20T08:30:40;1.7;;;0.5;;
76548;SDS011;65391;52.068;4.542;2023-07-20T08:33:02;1.7;;;0.5;;
76548;SDS011;65391;52.068;4.542;2023-07-20T08:35:27;1.7;;;0.5;;
76548;SDS011;65391;52.068;4.542;2023-07-20T08:37:52;0.8;;;0.3;;
76548;SDS011;65391;52.068;4.542;2023-07-20T08:40:17;0.8;;;0.3;;
76548;SDS011;65391;52.068;4.542;2023-07-20T08:42:42;0.8;;;0.3;;
76548;SDS011;65391;52.068;4.542;2023-07-20T08:45:07;0.8;;;0.3;;
76548;SDS011;65391;52.068;4.542;2023-07-20T08:47:32;1.1;;;0.4;;
76548;SDS011;65391;52.068;4.542;2023-07-20T08:49:57;1.1;;;0.4;;
76548;SDS011;65391;52.068;4.542;2023-07-20T08:52:22;1.1;;;0.4;;
76548;SDS011;65391;52.068;4.542;2023-07-20T08:54:47;1.1;;;0.4;;
76548;SDS011;65391;52.068;4.542;2023-07-20T08:57:13;1.2;;;0.4;;
76548;SDS011;65391;52.068;4.542;2023-07-20T08:59:37;1.2;;;0.4;;
76548;SDS011;65391;52.068;4.542;2023-07-20T09:02:02;1.2;;;0.4;;
76548;SDS011;65391;52.068;4.542;2023-07-20T09:04:27;1.2;;;0.4;;
76548;SDS011;65391;52.068;4.542;2023-07-20T09:06:52;2.9;;;0.5;;
76548;SDS011;65391;52.068;4.542;2023-07-20T09:09:17;2.9;;;0.5;;
76548;SDS011;65391;52.068;4.542;2023-07-20T09:11:42;2.9;;;0.5;;
76548;SDS011;65391;52.068;4.542;2023-07-20T09:14:07;2.9;;;0.5;;
76548;SDS011;65391;52.068;4.542;2023-07-20T09:16:32;0.6;;;0.4;;
76548;SDS011;65391;52.068;4.542;2023-07-20T09:18:57;0.6;;;0.4;;
76548;SDS011;65391;52.068;4.542;2023-07-20T09:21:22;0.6;;;0.4;;
76548;SDS011;65391;52.068;4.542;2023-07-20T09:23:47;0.6;;;0.4;;
76548;SDS011;65391;52.068;4.542;2023-07-20T09:26:12;0.4;;;0.2;;
76548;SDS011;65391;52.068;4.542;2023-07-20T09:28:41;0.4;;;0.2;;
76548;SDS011;65391;52.068;4.542;2023-07-20T09:31:02;0.4;;;0.2;;
76548;SDS011;65391;52.068;4.542;2023-07-20T09:33:27;0.4;;;0.2;;
76548;SDS011;65391;52.068;4.542;2023-07-20T09:35:52;0.5;;;0.2;;
76548;SDS011;65391;52.068;4.542;2023-07-20T09:38:17;0.5;;;0.2;;
76548;SDS011;65391;52.068;4.542;2023-07-20T09:40:42;0.5;;;0.2;;
76548;SDS011;65391;52.068;4.542;2023-07-20T09:43:07;0.5;;;0.2;;
76548;SDS011;65391;52.068;4.542;2023-07-20T09:45:33;0.5;;;0.2;;
76548;SDS011;65391;52.068;4.542;2023-07-20T09:48:03;0.3;;;0.2;;
76548;SDS011;65391;52.068;4.542;2023-07-20T09:50:22;0.3;;;0.2;;
76548;SDS011;65391;52.068;4.542;2023-07-20T09:52:47;0.3;;;0.2;;
76548;SDS011;65391;52.068;4.542;2023-07-20T09:55:12;0.3;;;0.2;;
76548;SDS011;65391;52.068;4.542;2023-07-20T09:57:37;1.1;;;0.2;;
76548;SDS011;65391;52.068;4.542;2023-07-20T10:00:03;1.1;;;0.2;;
76548;SDS011;65391;52.068;4.542;2023-07-20T10:02:30;1.1;;;0.2;;
76548;SDS011;65391;52.068;4.542;2023-07-20T10:04:53;1.1;;;0.2;;
76548;SDS011;65391;52.068;4.542;2023-07-20T10:07:17;1.9;;;0.4;;
76548;SDS011;65391;52.068;4.542;2023-07-20T10:09:42;1.9;;;0.4;;
76548;SDS011;65391;52.068;4.542;2023-07-20T10:12:07;1.9;;;0.4;;
76548;SDS011;65391;52.068;4.542;2023-07-20T10:14:32;1.9;;;0.4;;
76548;SDS011;65391;52.068;4.542;2023-07-20T10:16:58;1.3;;;0.2;;
76548;SDS011;65391;52.068;4.542;2023-07-20T10:19:23;1.3;;;0.2;;
76548;SDS011;65391;52.068;4.542;2023-07-20T10:21:47;1.3;;;0.2;;
76548;SDS011;65391;52.068;4.542;2023-07-20T10:24:12;1.3;;;0.2;;
76548;SDS011;65391;52.068;4.542;2023-07-20T10:26:37;0.5;;;0.1;;
76548;SDS011;65391;52.068;4.542;2023-07-20T10:29:02;0.5;;;0.1;;
76548;SDS011;65391;52.068;4.542;2023-07-20T10:31:27;0.5;;;0.1;;
76548;SDS011;65391;52.068;4.542;2023-07-20T10:33:52;0.5;;;0.1;;
76548;SDS011;65391;52.068;4.542;2023-07-20T10:36:20;2.2;;;0.3;;
76548;SDS011;65391;52.068;4.542;2023-07-20T10:38:42;2.2;;;0.3;;
76548;SDS011;65391;52.068;4.542;2023-07-20T10:41:16;2.2;;;0.3;;
76548;SDS011;65391;52.068;4.542;2023-07-20T10:43:32;2.2;;;0.3;;
76548;SDS011;65391;52.068;4.542;2023-07-20T10:45:57;1;;;0.3;;
76548;SDS011;65391;52.068;4.542;2023-07-20T10:48:23;1;;;0.3;;
76548;SDS011;65391;52.068;4.542;2023-07-20T10:51:09;1;;;0.3;;
76548;SDS011;65391;52.068;4.542;2023-07-20T10:53:13;1;;;0.3;;
76548;SDS011;65391;52.068;4.542;2023-07-20T10:55:37;1;;;0.3;;
76548;SDS011;65391;52.068;4.542;2023-07-20T10:58:10;0.5;;;0.3;;
76548;SDS011;65391;52.068;4.542;2023-07-20T11:00:27;0.5;;;0.3;;
76548;SDS011;65391;52.068;4.542;2023-07-20T11:02:52;0.5;;;0.3;;
76548;SDS011;65391;52.068;4.542;2023-07-20T11:05:33;0.5;;;0.3;;
76548;SDS011;65391;52.068;4.542;2023-07-20T11:07:42;0.5;;;0.3;;
76548;SDS011;65391;52.068;4.542;2023-07-20T11:10:14;0.5;;;0.3;;
76548;SDS011;65391;52.068;4.542;2023-07-20T11:12:32;0.5;;;0.3;;
76548;SDS011;65391;52.068;4.542;2023-07-20T11:14:57;0.5;;;0.3;;
76548;SDS011;65391;52.068;4.542;2023-07-20T11:17:28;0.6;;;0.3;;
76548;SDS011;65391;52.068;4.542;2023-07-20T11:19:47;0.6;;;0.3;;
76548;SDS011;65391;52.068;4.542;2023-07-20T11:22:12;0.6;;;0.3;;
76548;SDS011;65391;52.068;4.542;2023-07-20T11:24:38;0.6;;;0.3;;
76548;SDS011;65391;52.068;4.542;2023-07-20T11:27:02;0.6;;;0.2;;
76548;SDS011;65391;52.068;4.542;2023-07-20T11:29:27;0.6;;;0.2;;
76548;SDS011;65391;52.068;4.542;2023-07-20T11:31:52;0.6;;;0.2;;
76548;SDS011;65391;52.068;4.542;2023-07-20T11:34:19;0.6;;;0.2;;
76548;SDS011;65391;52.068;4.542;2023-07-20T11:36:43;10.1;;;1.3;;
76548;SDS011;65391;52.068;4.542;2023-07-20T11:39:08;10.1;;;1.3;;
76548;SDS011;65391;52.068;4.542;2023-07-20T11:41:32;10.1;;;1.3;;
76548;SDS011;65391;52.068;4.542;2023-07-20T11:43:57;10.1;;;1.3;;
76548;SDS011;65391;52.068;4.542;2023-07-20T11:46:22;3.7;;;0.3;;
76548;SDS011;65391;52.068;4.542;2023-07-20T11:48:47;3.7;;;0.3;;
76548;SDS011;65391;52.068;4.542;2023-07-20T11:51:14;3.7;;;0.3;;
76548;SDS011;65391;52.068;4.542;2023-07-20T11:53:37;3.7;;;0.3;;
76548;SDS011;65391;52.068;4.542;2023-07-20T11:56:02;3.7;;;0.3;;
76548;SDS011;65391;52.068;4.542;2023-07-20T11:58:27;0.7;;;0.3;;
76548;SDS011;65391;52.068;4.542;2023-07-20T12:00:52;0.7;;;0.3;;
76548;SDS011;65391;52.068;4.542;2023-07-20T12:03:17;0.7;;;0.3;;
76548;SDS011;65391;52.068;4.542;2023-07-20T12:05:42;0.7;;;0.3;;
76548;SDS011;65391;52.068;4.542;2023-07-20T12:08:07;1;;;0.3;;
76548;SDS011;65391;52.068;4.542;2023-07-20T12:10:32;1;;;0.3;;
76548;SDS011;65391;52.068;4.542;2023-07-20T12:13:01;1;;;0.3;;
76548;SDS011;65391;52.068;4.542;2023-07-20T12:15:23;1;;;0.3;;
76548;SDS011;65391;52.068;4.542;2023-07-20T12:17:49;0.6;;;0.3;;
76548;SDS011;65391;52.068;4.542;2023-07-20T12:20:12;0.6;;;0.3;;
76548;SDS011;65391;52.068;4.542;2023-07-20T12:22:39;0.6;;;0.3;;
76548;SDS011;65391;52.068;4.542;2023-07-20T12:25:05;0.6;;;0.3;;
76548;SDS011;65391;52.068;4.542;2023-07-20T12:27:27;1;;;0.4;;
76548;SDS011;65391;52.068;4.542;2023-07-20T12:29:52;1;;;0.4;;
76548;SDS011;65391;52.068;4.542;2023-07-20T12:32:17;1;;;0.4;;
76548;SDS011;65391;52.068;4.542;2023-07-20T12:34:42;1;;;0.4;;
76548;SDS011;65391;52.068;4.542;2023-07-20T12:37:07;1.2;;;0.3;;
76548;SDS011;65391;52.068;4.542;2023-07-20T12:39:32;1.2;;;0.3;;
76548;SDS011;65391;52.068;4.542;2023-07-20T12:41:57;1.2;;;0.3;;
76548;SDS011;65391;52.068;4.542;2023-07-20T12:44:22;1.2;;;0.3;;
76548;SDS011;65391;52.068;4.542;2023-07-20T12:46:47;0.7;;;0.2;;
76548;SDS011;65391;52.068;4.542;2023-07-20T12:49:12;0.7;;;0.2;;
76548;SDS011;65391;52.068;4.542;2023-07-20T12:51:37;0.7;;;0.2;;
76548;SDS011;65391;52.068;4.542;2023-07-20T12:54:02;0.7;;;0.2;;
76548;SDS011;65391;52.068;4.542;2023-07-20T12:56:27;1.2;;;0.3;;
76548;SDS011;65391;52.068;4.542;2023-07-20T12:58:52;1.2;;;0.3;;
76548;SDS011;65391;52.068;4.542;2023-07-20T13:01:18;1.2;;;0.3;;
76548;SDS011;65391;52.068;4.542;2023-07-20T13:03:42;1.2;;;0.3;;
76548;SDS011;65391;52.068;4.542;2023-07-20T13:06:07;1.2;;;0.3;;
76548;SDS011;65391;52.068;4.542;2023-07-20T13:08:32;0.7;;;0.3;;
76548;SDS011;65391;52.068;4.542;2023-07-20T13:10:57;0.7;;;0.3;;
76548;SDS011;65391;52.068;4.542;2023-07-20T13:13:22;0.7;;;0.3;;
76548;SDS011;65391;52.068;4.542;2023-07-20T13:15:47;0.7;;;0.3;;
76548;SDS011;65391;52.068;4.542;2023-07-20T13:18:12;0.4;;;0.1;;
76548;SDS011;65391;52.068;4.542;2023-07-20T13:20:37;0.4;;;0.1;;
76548;SDS011;65391;52.068;4.542;2023-07-20T13:23:02;0.4;;;0.1;;
76548;SDS011;65391;52.068;4.542;2023-07-20T13:25:27;0.4;;;0.1;;
76548;SDS011;65391;52.068;4.542;2023-07-20T13:27:52;0.4;;;0.2;;
76548;SDS011;65391;52.068;4.542;2023-07-20T13:30:17;0.4;;;0.2;;
76548;SDS011;65391;52.068;4.542;2023-07-20T13:32:42;0.4;;;0.2;;
76548;SDS011;65391;52.068;4.542;2023-07-20T13:35:07;0.4;;;0.2;;
76548;SDS011;65391;52.068;4.542;2023-07-20T13:37:32;0.6;;;0.2;;
76548;SDS011;65391;52.068;4.542;2023-07-20T13:39:57;0.6;;;0.2;;
76548;SDS011;65391;52.068;4.542;2023-07-20T13:42:22;0.6;;;0.2;;
76548;SDS011;65391;52.068;4.542;2023-07-20T13:44:47;0.6;;;0.2;;
76548;SDS011;65391;52.068;4.542;2023-07-20T13:47:12;0.4;;;0.2;;
76548;SDS011;65391;52.068;4.542;2023-07-20T13:49:37;0.4;;;0.2;;
76548;SDS011;65391;52.068;4.542;2023-07-20T13:52:02;0.4;;;0.2;;
76548;SDS011;65391;52.068;4.542;2023-07-20T13:54:27;0.4;;;0.2;;
76548;SDS011;65391;52.068;4.542;2023-07-20T13:56:52;2;;;0.2;;
76548;SDS011;65391;52.068;4.542;2023-07-20T13:59:17;2;;;0.2;;
76548;SDS011;65391;52.068;4.542;2023-07-20T14:01:42;2;;;0.2;;
76548;SDS011;65391;52.068;4.542;2023-07-20T14:04:07;2;;;0.2;;
76548;SDS011;65391;52.068;4.542;2023-07-20T14:06:32;0.8;;;0.2;;
76548;SDS011;65391;52.068;4.542;2023-07-20T14:08:57;0.8;;;0.2;;
76548;SDS011;65391;52.068;4.542;2023-07-20T14:11:22;0.8;;;0.2;;
76548;SDS011;65391;52.068;4.542;2023-07-20T14:13:47;0.8;;;0.2;;
76548;SDS011;65391;52.068;4.542;2023-07-20T14:16:13;0.8;;;0.2;;
76548;SDS011;65391;52.068;4.542;2023-07-20T14:18:37;0.8;;;0.3;;
76548;SDS011;65391;52.068;4.542;2023-07-20T14:21:03;0.8;;;0.3;;
76548;SDS011;65391;52.068;4.542;2023-07-20T14:23:27;0.8;;;0.3;;
76548;SDS011;65391;52.068;4.542;2023-07-20T14:25:52;0.8;;;0.3;;
76548;SDS011;65391;52.068;4.542;2023-07-20T14:28:18;0.4;;;0.2;;
76548;SDS011;65391;52.068;4.542;2023-07-20T14:30:42;0.4;;;0.2;;
76548;SDS011;65391;52.068;4.542;2023-07-20T14:33:08;0.4;;;0.2;;
76548;SDS011;65391;52.068;4.542;2023-07-20T14:35:33;0.4;;;0.2;;
76548;SDS011;65391;52.068;4.542;2023-07-20T14:37:57;1.2;;;0.1;;
76548;SDS011;65391;52.068;4.542;2023-07-20T14:40:22;1.2;;;0.1;;
76548;SDS011;65391;52.068;4.542;2023-07-20T14:42:47;1.2;;;0.1;;
76548;SDS011;65391;52.068;4.542;2023-07-20T14:45:12;1.2;;;0.1;;
76548;SDS011;65391;52.068;4.542;2023-07-20T14:47:37;0.2;;;0.1;;
76548;SDS011;65391;52.068;4.542;2023-07-20T14:50:03;0.2;;;0.1;;
76548;SDS011;65391;52.068;4.542;2023-07-20T14:52:27;0.2;;;0.1;;
76548;SDS011;65391;52.068;4.542;2023-07-20T14:54:52;0.2;;;0.1;;
76548;SDS011;65391;52.068;4.542;2023-07-20T14:57:17;0.2;;;0.1;;
76548;SDS011;65391;52.068;4.542;2023-07-20T14:59:42;0.2;;;0.1;;
76548;SDS011;65391;52.068;4.542;2023-07-20T15:02:07;0.2;;;0.1;;
76548;SDS011;65391;52.068;4.542;2023-07-20T15:04:33;0.2;;;0.1;;